Time;durP1;ratioP1;P1;durP2;ratioP2;P2;SDS_P1;SDS_P2;PMS_P1;PMS_P2;Temp;Humidity;BMP_temperature;BMP_pressure;BME280_temperature;BME280_humidity;BME280_pressure;Samples;Min_cycle;Max_cycle;Signal;HPM_P1;HPM_P2
2023/11/08 00:01:43;;;;;;;;;;;;;;;8.64;85.45;100634.72;4027519;29;20019;-70
2023/11/08 00:03:44;;;;;;;;;;;;;;;8.64;85.53;100632.03;4010922;29;20034;-70
2023/11/08 00:05:47;;;;;;;;;;;;;;;8.64;85.53;100636.59;4028834;29;20005;-70
2023/11/08 00:07:49;;;;;;;;;;;;;;;8.64;85.40;100632.03;4027899;29;20020;-71
2023/11/08 00:09:51;;;;;;;;;;;;;;;8.64;85.66;100632.03;4026927;29;19993;-71
2023/11/08 00:11:53;;;;;;;;;;;;;;;8.66;85.16;100634.56;4024982;29;20149;-70
2023/11/08 00:13:57;;;;;;;;;;;;;;;8.65;85.39;100636.44;4026810;29;20018;-71
2023/11/08 00:15:59;;;;;;;;;;;;;;;8.68;85.42;100635.22;4027110;29;20024;-70
2023/11/08 00:18:01;;;;;;;;;;;;;;;8.69;85.32;100636.09;4011383;29;20039;-70
2023/11/08 00:20:03;;;;;;;;;;;;;;;8.69;85.06;100628.84;4027196;29;20035;-70
2023/11/08 00:22:05;;;;;;;;;;;;;;;8.70;85.31;100640.44;4024117;29;20480;-70
2023/11/08 00:24:08;;;;;;;;;;;;;;;8.71;85.04;100634.91;4026234;29;20371;-70
2023/11/08 00:26:10;;;;;;;;;;;;;;;8.72;84.97;100647.38;4027357;29;20071;-70
2023/11/08 00:28:14;;;;;;;;;;;;;;;8.73;85.00;100634.72;4025979;29;20130;-70
2023/11/08 00:30:18;;;;;;;;;;;;;;;8.74;85.08;100639.13;4040649;29;20021;-70
2023/11/08 00:32:21;;;;;;;;;;;;;;;8.73;84.76;100635.59;4024674;29;21663;-70
2023/11/08 00:34:23;;;;;;;;;;;;;;;8.73;84.81;100635.59;4026345;29;20035;-70
2023/11/08 00:36:25;;;;;;;;;;;;;;;8.76;85.00;100634.41;4010989;29;20022;-70
2023/11/08 00:38:27;;;;;;;;;;;;;;;8.77;84.95;100638.78;4027082;29;20027;-70
2023/11/08 00:40:29;;;;;;;;;;;;;;;8.76;84.94;100637.94;4010079;29;20022;-71
2023/11/08 00:42:30;;;;;;;;;;;;;;;8.78;84.92;100645.88;4027456;29;20019;-70
2023/11/08 00:44:32;;;;;;;;;;;;;;;8.76;84.79;100643.34;4026724;29;19932;-70
2023/11/08 00:46:36;;;;;;;;;;;;;;;8.77;84.92;100639.63;4026322;29;19976;-71
2023/11/08 00:48:38;;;;;;;;;;;;;;;8.78;84.53;100646.69;4027338;29;20011;-70
2023/11/08 00:50:41;;;;;;;;;;;;;;;8.79;84.59;100632.22;4026459;29;20043;-70
2023/11/08 00:52:43;;;;;;;;;;;;;;;8.79;84.76;100640.31;3996504;29;19975;-70
2023/11/08 00:54:45;;;;;;;;;;;;;;;8.79;84.81;100634.94;4026790;29;20011;-70
2023/11/08 00:56:47;;;;;;;;;;;;;;;8.79;84.70;100637.63;4026652;29;20034;-71
2023/11/08 00:58:50;;;;;;;;;;;;;;;8.79;84.60;100632.22;4026979;29;20027;-70
2023/11/08 01:00:52;;;;;;;;;;;;;;;8.80;84.57;100641.97;4026783;29;20019;-70
2023/11/08 01:02:56;;;;;;;;;;;;;;;8.81;84.91;100640.16;4027006;29;20363;-70
2023/11/08 01:04:58;;;;;;;;;;;;;;;8.82;84.77;100645.38;4029980;29;20371;-70
2023/11/08 01:07:00;;;;;;;;;;;;;;;8.83;84.55;100632.72;4030455;29;19955;-70
2023/11/08 01:09:02;;;;;;;;;;;;;;;8.84;84.34;100631.72;4011446;29;19968;-70
2023/11/08 01:11:04;;;;;;;;;;;;;;;8.86;84.61;100634.25;4030751;29;19995;-70
2023/11/08 01:13:06;;;;;;;;;;;;;;;8.86;84.19;100634.25;4031154;29;20023;-70
2023/11/08 01:15:09;;;;;;;;;;;;;;;8.84;84.54;100635.25;4031794;29;20063;-70
2023/11/08 01:17:11;;;;;;;;;;;;;;;8.86;84.18;100635.09;4028948;29;20920;-70
2023/11/08 01:19:15;;;;;;;;;;;;;;;8.86;84.43;100645.03;4029350;29;19963;-71
2023/11/08 01:21:17;;;;;;;;;;;;;;;8.88;83.96;100633.06;4031161;29;19978;-70
2023/11/08 01:23:19;;;;;;;;;;;;;;;8.90;84.13;100631.03;4013471;29;20654;-70
2023/11/08 01:25:20;;;;;;;;;;;;;;;8.90;84.04;100628.34;4044467;29;20018;-71
2023/11/08 01:27:22;;;;;;;;;;;;;;;8.90;84.23;100632.88;4029904;29;20419;-70
2023/11/08 01:29:25;;;;;;;;;;;;;;;8.89;83.99;100629.38;4029226;29;20027;-71
2023/11/08 01:31:27;;;;;;;;;;;;;;;8.89;84.18;100629.38;4014850;29;19967;-71
2023/11/08 01:33:29;;;;;;;;;;;;;;;8.93;83.93;100628.00;3997413;29;20370;-71
2023/11/08 01:35:32;;;;;;;;;;;;;;;8.94;83.67;100632.38;4029589;29;20455;-70
2023/11/08 01:37:35;;;;;;;;;;;;;;;8.96;83.54;100630.34;4045532;29;20019;-70
2023/11/08 01:39:37;;;;;;;;;;;;;;;8.93;83.83;100627.16;4044328;29;20019;-70
2023/11/08 01:41:39;;;;;;;;;;;;;;;8.97;83.68;100628.53;4029435;29;20003;-71
2023/11/08 01:43:41;;;;;;;;;;;;;;;8.95;83.51;100627.81;4014560;29;20463;-70
2023/11/08 01:45:43;;;;;;;;;;;;;;;8.91;83.54;100630.03;4014311;29;20019;-71
2023/11/08 01:47:47;;;;;;;;;;;;;;;8.92;83.57;100629.03;4030317;29;20456;-70
2023/11/08 01:49:49;;;;;;;;;;;;;;;8.93;83.36;100625.31;4029739;29;20018;-70
2023/11/08 01:51:52;;;;;;;;;;;;;;;8.91;83.54;100623.81;4013236;29;20059;-70
2023/11/08 01:53:53;;;;;;;;;;;;;;;8.89;83.71;100629.38;4030405;29;20022;-71
2023/11/08 01:55:56;;;;;;;;;;;;;;;8.90;83.47;100627.50;4013624;29;20065;-70
2023/11/08 01:57:59;;;;;;;;;;;;;;;8.89;83.52;100623.97;3999195;29;19971;-70
2023/11/08 02:00:01;;;;;;;;;;;;;;;8.87;83.78;100622.44;4044299;29;20045;-71
2023/11/08 02:02:03;;;;;;;;;;;;;;;8.86;83.70;100621.63;4030577;29;20015;-71
2023/11/08 02:04:05;;;;;;;;;;;;;;;8.84;83.51;100623.66;4014908;29;20055;-71
2023/11/08 02:06:08;;;;;;;;;;;;;;;8.83;83.93;100630.03;4044158;29;20022;-71
2023/11/08 02:08:10;;;;;;;;;;;;;;;8.80;83.77;100623.13;4028505;29;20391;-70
2023/11/08 02:10:14;;;;;;;;;;;;;;;8.77;83.54;100618.06;4029188;29;20019;-70
2023/11/08 02:12:16;;;;;;;;;;;;;;;8.76;83.81;100612.84;3997482;29;20019;-70
2023/11/08 02:14:18;;;;;;;;;;;;;;;8.74;83.71;100621.09;4027651;29;20023;-71
2023/11/08 02:16:20;;;;;;;;;;;;;;;8.73;83.74;100618.56;4028045;29;20051;-70
2023/11/08 02:18:22;;;;;;;;;;;;;;;8.71;84.04;100610.66;4029009;29;20014;-70
2023/11/08 02:20:23;;;;;;;;;;;;;;;8.69;83.72;100606.47;4012348;29;20026;-70
2023/11/08 02:22:26;;;;;;;;;;;;;;;8.68;84.06;100611.00;4028528;29;20027;-70
2023/11/08 02:24:30;;;;;;;;;;;;;;;8.66;83.98;100603.09;4028313;29;20008;-70
2023/11/08 02:26:32;;;;;;;;;;;;;;;8.66;83.90;100611.16;4027726;29;20027;-70
2023/11/08 02:28:35;;;;;;;;;;;;;;;8.63;84.01;100610.66;4028862;29;19936;-70
2023/11/08 02:30:37;;;;;;;;;;;;;;;8.61;83.89;100616.22;4027131;29;20447;-70
2023/11/08 02:32:39;;;;;;;;;;;;;;;8.58;83.97;100608.47;4026791;29;20044;-70
2023/11/08 02:34:41;;;;;;;;;;;;;;;8.56;84.17;100610.50;4028849;29;20027;-70
2023/11/08 02:36:43;;;;;;;;;;;;;;;8.53;84.35;100610.84;4029153;29;20023;-70
2023/11/08 02:38:45;;;;;;;;;;;;;;;8.51;84.52;100607.47;4028040;29;20043;-70
2023/11/08 02:40:49;;;;;;;;;;;;;;;8.48;84.37;100600.56;4012519;29;20443;-70
2023/11/08 02:42:52;;;;;;;;;;;;;;;8.49;84.50;100606.78;4009592;29;20308;-70
2023/11/08 02:44:54;;;;;;;;;;;;;;;8.46;84.35;100594.53;4028720;29;20378;-70
2023/11/08 02:46:56;;;;;;;;;;;;;;;8.47;84.90;100598.88;4027934;29;20027;-70
2023/11/08 02:48:59;;;;;;;;;;;;;;;8.45;84.60;100605.47;4029308;29;20399;-70
2023/11/08 02:51:03;;;;;;;;;;;;;;;8.43;84.79;100611.00;4028857;29;20027;-70
2023/11/08 02:53:04;;;;;;;;;;;;;;;8.41;84.63;100601.38;4028117;29;20014;-70
2023/11/08 02:55:06;;;;;;;;;;;;;;;8.40;84.53;100602.38;4028711;29;20319;-70
2023/11/08 02:57:09;;;;;;;;;;;;;;;8.38;84.65;100602.53;4028489;29;20019;-70
2023/11/08 02:59:11;;;;;;;;;;;;;;;8.37;84.64;100608.09;4025101;29;20010;-70
2023/11/08 03:01:13;;;;;;;;;;;;;;;8.35;84.92;100602.03;4010863;29;20023;-70
2023/11/08 03:03:15;;;;;;;;;;;;;;;8.34;85.18;100598.50;4028385;29;20028;-70
2023/11/08 03:05:21;;;;;;;;;;;;;;;8.32;84.89;100599.66;4028643;29;20035;-70
2023/11/08 03:07:23;;;;;;;;;;;;;;;8.30;85.27;100605.22;4011755;29;20597;-70
2023/11/08 03:09:25;;;;;;;;;;;;;;;8.30;85.20;100605.22;4011988;29;20671;-70
2023/11/08 03:11:27;;;;;;;;;;;;;;;8.29;85.07;100612.47;4027367;29;20027;-70
2023/11/08 03:13:32;;;;;;;;;;;;;;;8.30;85.30;100614.13;4027480;29;20027;-70
2023/11/08 03:15:34;;;;;;;;;;;;;;;8.29;85.23;100603.53;4027051;29;20055;-70
2023/11/08 03:17:36;;;;;;;;;;;;;;;8.28;85.35;100609.94;4027711;29;20059;-70
2023/11/08 03:19:37;;;;;;;;;;;;;;;8.28;85.31;100608.06;4010885;29;20028;-70
2023/11/08 03:21:39;;;;;;;;;;;;;;;8.26;85.19;100604.72;4027437;29;19928;-70
2023/11/08 03:23:41;;;;;;;;;;;;;;;8.26;85.00;100603.84;4024375;29;20023;-70
2023/11/08 03:25:43;;;;;;;;;;;;;;;8.27;85.17;100601.00;4026814;29;20023;-70
2023/11/08 03:27:46;;;;;;;;;;;;;;;8.27;85.02;100606.38;4026149;29;20019;-70
2023/11/08 03:29:57;;;;;;;;;;;;;;;8.25;85.26;100603.03;4027730;29;19938;-70
2023/11/08 03:32:00;;;;;;;;;;;;;;;8.26;85.21;100603.84;4026439;29;19927;-70
2023/11/08 03:34:03;;;;;;;;;;;;;;;8.24;85.16;100611.25;4028254;29;20552;-70
2023/11/08 03:36:05;;;;;;;;;;;;;;;8.23;85.24;100606.91;4027373;29;20015;-70
2023/11/08 03:38:07;;;;;;;;;;;;;;;8.23;85.32;100605.03;4025329;29;20023;-71
2023/11/08 03:40:11;;;;;;;;;;;;;;;8.25;85.29;100607.56;4025459;29;20039;-70
2023/11/08 03:42:13;;;;;;;;;;;;;;;8.25;84.90;100603.03;4026406;29;20057;-70
2023/11/08 03:44:15;;;;;;;;;;;;;;;8.23;84.85;100607.72;4027398;29;20031;-71
2023/11/08 03:46:18;;;;;;;;;;;;;;;8.24;85.16;100608.56;4027979;29;20015;-71
2023/11/08 03:48:19;;;;;;;;;;;;;;;8.24;84.96;100609.41;4027459;29;20023;-69
2023/11/08 03:50:21;;;;;;;;;;;;;;;8.24;85.05;100606.72;4026989;29;19984;-71
2023/11/08 03:52:24;;;;;;;;;;;;;;;8.25;84.93;100612.94;4027441;29;20019;-70
2023/11/08 03:54:26;;;;;;;;;;;;;;;8.23;84.84;100610.44;4028009;29;20114;-71
2023/11/08 03:56:30;;;;;;;;;;;;;;;8.24;84.98;100617.47;4026401;29;20007;-70
2023/11/08 03:58:32;;;;;;;;;;;;;;;8.24;85.04;100622.03;4027196;29;20051;-71
2023/11/08 04:00:34;;;;;;;;;;;;;;;8.21;84.77;100619.66;4027121;29;20034;-70
2023/11/08 04:02:37;;;;;;;;;;;;;;;8.19;84.85;100617.13;4026783;29;20022;-70
2023/11/08 04:04:39;;;;;;;;;;;;;;;8.17;84.97;100613.78;4026929;29;20027;-70
2023/11/08 04:06:42;;;;;;;;;;;;;;;8.14;85.32;100608.72;4027219;29;20030;-69
2023/11/08 04:08:44;;;;;;;;;;;;;;;8.13;85.07;100607.03;4027493;29;20391;-71
2023/11/08 04:10:46;;;;;;;;;;;;;;;8.12;85.11;100614.25;4026880;29;19936;-71
2023/11/08 04:12:48;;;;;;;;;;;;;;;8.10;85.08;100616.28;4027349;29;20031;-71
2023/11/08 04:14:50;;;;;;;;;;;;;;;8.08;85.42;100614.75;4027337;29;20023;-71
2023/11/08 04:16:53;;;;;;;;;;;;;;;8.07;85.20;100618.44;4026516;29;20027;-70
2023/11/08 04:18:56;;;;;;;;;;;;;;;8.06;85.37;100617.59;4027436;29;20027;-70
2023/11/08 04:20:58;;;;;;;;;;;;;;;8.04;85.62;100610.69;4027032;29;20022;-71
2023/11/08 04:23:00;;;;;;;;;;;;;;;8.03;85.70;100604.47;4026814;29;20030;-70
2023/11/08 04:25:02;;;;;;;;;;;;;;;8.02;85.48;100605.47;4027102;29;20018;-70
2023/11/08 04:27:04;;;;;;;;;;;;;;;8.01;85.50;100608.34;4027374;29;20023;-70
2023/11/08 04:29:06;;;;;;;;;;;;;;;8.01;85.90;100609.19;4027474;29;20048;-70
2023/11/08 04:31:08;;;;;;;;;;;;;;;8.02;85.84;100604.66;4025300;29;20005;-71
2023/11/08 04:33:10;;;;;;;;;;;;;;;8.02;85.87;100613.53;4025828;29;20019;-69
2023/11/08 04:35:17;;;;;;;;;;;;;;;8.02;85.59;100608.16;4027025;29;20018;-70
2023/11/08 04:37:19;;;;;;;;;;;;;;;8.01;85.65;100611.03;4026924;29;20367;-71
2023/11/08 04:39:21;;;;;;;;;;;;;;;8.00;85.75;100604.81;4029131;29;20475;-71
2023/11/08 04:41:24;;;;;;;;;;;;;;;8.04;85.86;100605.31;4029800;29;20030;-71
2023/11/08 04:43:25;;;;;;;;;;;;;;;8.03;85.81;100611.72;4029710;29;20024;-71
2023/11/08 04:45:28;;;;;;;;;;;;;;;8.03;85.75;100609.88;4029922;29;20015;-69
2023/11/08 04:47:30;;;;;;;;;;;;;;;8.03;85.95;100615.25;4029661;29;19931;-71
2023/11/08 04:49:32;;;;;;;;;;;;;;;8.00;86.02;100615.56;4029970;29;20011;-71
2023/11/08 04:51:34;;;;;;;;;;;;;;;8.01;86.09;100614.56;4029579;29;19928;-71
2023/11/08 04:53:36;;;;;;;;;;;;;;;8.01;86.15;100616.41;4029796;29;20035;-71
2023/11/08 04:55:38;;;;;;;;;;;;;;;8.00;86.13;100614.75;4029380;29;20035;-70
2023/11/08 04:57:40;;;;;;;;;;;;;;;7.99;86.34;100608.50;4026214;29;20466;-71
2023/11/08 04:59:42;;;;;;;;;;;;;;;8.00;86.30;100612.03;4029007;29;20027;-71
2023/11/08 05:01:45;;;;;;;;;;;;;;;7.99;86.33;100613.03;4028577;29;20024;-70
2023/11/08 05:03:47;;;;;;;;;;;;;;;7.99;86.29;100613.03;4028863;29;20007;-70
2023/11/08 05:05:49;;;;;;;;;;;;;;;7.98;86.50;100614.03;4029095;29;20474;-71
2023/11/08 05:07:52;;;;;;;;;;;;;;;8.00;86.65;100620.94;4029158;29;20022;-70
2023/11/08 05:09:54;;;;;;;;;;;;;;;8.01;86.31;100614.56;4028666;29;20028;-71
2023/11/08 05:11:56;;;;;;;;;;;;;;;8.05;86.51;100623.16;4028203;29;19931;-71
2023/11/08 05:13:58;;;;;;;;;;;;;;;8.06;86.49;100614.09;4027346;29;20011;-70
2023/11/08 05:16:00;;;;;;;;;;;;;;;8.06;86.50;100617.59;4027928;29;20019;-71
2023/11/08 05:18:02;;;;;;;;;;;;;;;8.11;86.21;100622.50;4028247;29;20020;-72
2023/11/08 05:20:04;;;;;;;;;;;;;;;8.11;86.23;100619.81;4027581;29;20027;-71
2023/11/08 05:22:06;;;;;;;;;;;;;;;8.10;86.11;100610.91;4028587;29;20539;-70
2023/11/08 05:24:10;;;;;;;;;;;;;;;8.11;86.27;100617.94;4028284;29;20030;-71
2023/11/08 05:26:12;;;;;;;;;;;;;;;8.11;86.36;100625.19;4027737;29;20019;-71
2023/11/08 05:28:14;;;;;;;;;;;;;;;8.11;86.11;100615.25;4028998;29;20020;-71
2023/11/08 05:30:16;;;;;;;;;;;;;;;8.12;86.11;100614.25;4027827;29;20018;-70
2023/11/08 05:32:20;;;;;;;;;;;;;;;8.13;85.86;100615.09;4028017;29;19966;-71
2023/11/08 05:34:22;;;;;;;;;;;;;;;8.15;86.16;100623.00;4028618;29;20011;-71
2023/11/08 05:36:24;;;;;;;;;;;;;;;8.17;85.85;100621.00;4029324;29;20076;-71
2023/11/08 05:38:26;;;;;;;;;;;;;;;8.18;85.85;100628.91;4029161;29;20622;-70
2023/11/08 05:40:30;;;;;;;;;;;;;;;8.17;85.64;100623.69;4027257;29;20373;-70
2023/11/08 05:42:32;;;;;;;;;;;;;;;8.15;85.71;100615.78;4028086;29;20450;-70
2023/11/08 05:44:34;;;;;;;;;;;;;;;8.19;85.66;100619.00;4028739;29;20035;-70
2023/11/08 05:46:36;;;;;;;;;;;;;;;8.25;85.92;100623.72;4028257;29;20034;-69
2023/11/08 05:48:38;;;;;;;;;;;;;;;8.20;85.70;100624.22;4028146;29;20023;-69
2023/11/08 05:50:43;;;;;;;;;;;;;;;8.20;85.44;100624.22;4026471;29;20610;-71
2023/11/08 05:52:44;;;;;;;;;;;;;;;8.22;85.62;100626.72;4027859;29;19932;-71
2023/11/08 05:54:46;;;;;;;;;;;;;;;8.24;85.40;100628.22;4028013;29;19935;-68
2023/11/08 05:56:48;;;;;;;;;;;;;;;8.25;85.31;100632.63;4028318;29;20064;-71
2023/11/08 05:58:50;;;;;;;;;;;;;;;8.24;85.38;100640.84;4028669;29;20022;-69
2023/11/08 06:00:52;;;;;;;;;;;;;;;8.22;85.27;100632.94;4027447;29;20027;-69
2023/11/08 06:02:54;;;;;;;;;;;;;;;8.23;85.36;100641.88;4028260;29;20034;-70
2023/11/08 06:04:55;;;;;;;;;;;;;;;8.22;85.38;100646.41;4042064;29;20456;-71
2023/11/08 06:06:57;;;;;;;;;;;;;;;8.24;85.38;100639.00;4028010;29;20026;-71
2023/11/08 06:08:59;;;;;;;;;;;;;;;8.24;85.33;100643.53;4027997;29;20023;-70
2023/11/08 06:11:01;;;;;;;;;;;;;;;8.27;85.41;100645.91;4027853;29;20026;-70
2023/11/08 06:13:05;;;;;;;;;;;;;;;8.28;85.36;100648.44;4027951;29;19932;-70
2023/11/08 06:15:08;;;;;;;;;;;;;;;8.28;85.17;100650.28;4026706;29;20023;-69
2023/11/08 06:17:10;;;;;;;;;;;;;;;8.27;84.98;100645.91;4024052;29;20019;-70
2023/11/08 06:19:12;;;;;;;;;;;;;;;8.31;85.01;100644.59;4009632;29;20015;-70
2023/11/08 06:21:14;;;;;;;;;;;;;;;8.30;85.25;100641.03;4027389;29;20028;-70
2023/11/08 06:23:16;;;;;;;;;;;;;;;8.34;85.18;100655.03;4041156;29;20034;-70
2023/11/08 06:25:18;;;;;;;;;;;;;;;8.36;84.89;100644.09;4027706;29;20475;-70
2023/11/08 06:27:20;;;;;;;;;;;;;;;8.29;84.94;100641.19;4028321;29;20039;-69
2023/11/08 06:29:23;;;;;;;;;;;;;;;8.36;85.07;100652.16;4027125;29;20059;-70
2023/11/08 06:31:26;;;;;;;;;;;;;;;8.35;84.86;100655.84;4026343;29;20086;-70
2023/11/08 06:33:28;;;;;;;;;;;;;;;8.39;85.13;100655.34;4027039;29;20565;-70
2023/11/08 06:35:30;;;;;;;;;;;;;;;8.44;84.64;100661.13;4028134;29;20028;-70
2023/11/08 06:37:31;;;;;;;;;;;;;;;8.44;84.82;100668.34;4027269;29;20010;-70
2023/11/08 06:39:33;;;;;;;;;;;;;;;8.51;84.42;100664.00;4026516;29;19932;-70
2023/11/08 06:41:35;;;;;;;;;;;;;;;8.49;84.50;100657.94;4027640;29;20075;-71
2023/11/08 06:43:37;;;;;;;;;;;;;;;8.51;84.77;100661.31;4024637;29;20495;-71
2023/11/08 06:45:40;;;;;;;;;;;;;;;8.49;84.96;100657.94;4026323;29;20237;-71
2023/11/08 06:47:41;;;;;;;;;;;;;;;8.52;85.04;100667.53;4027456;29;20027;-70
2023/11/08 06:49:43;;;;;;;;;;;;;;;8.53;85.13;100667.38;4026953;29;20011;-70
2023/11/08 06:51:45;;;;;;;;;;;;;;;8.53;85.10;100666.53;4024052;29;20498;-71
2023/11/08 06:53:47;;;;;;;;;;;;;;;8.56;85.12;100685.88;4027444;29;19928;-69
2023/11/08 06:55:50;;;;;;;;;;;;;;;8.59;85.15;100664.00;4026664;29;20024;-70
2023/11/08 06:57:52;;;;;;;;;;;;;;;8.60;85.02;100681.00;4027669;29;20028;-71
2023/11/08 06:59:53;;;;;;;;;;;;;;;8.61;85.01;100677.31;4026364;29;20371;-71
2023/11/08 07:01:56;;;;;;;;;;;;;;;8.65;84.83;100686.72;4027305;29;20027;-70
2023/11/08 07:03:58;;;;;;;;;;;;;;;8.65;84.78;100679.50;4027781;29;20287;-71
2023/11/08 07:06:00;;;;;;;;;;;;;;;8.65;84.92;100687.59;4027330;29;20026;-71
2023/11/08 07:08:02;;;;;;;;;;;;;;;8.66;85.36;100681.16;4027497;29;20026;-70
2023/11/08 07:10:05;;;;;;;;;;;;;;;8.65;85.43;100684.03;4027685;29;20095;-71
2023/11/08 07:12:08;;;;;;;;;;;;;;;8.72;85.12;100689.63;4025828;29;20039;-71
2023/11/08 07:14:11;;;;;;;;;;;;;;;8.72;85.24;100678.84;4027734;29;20490;-70
2023/11/08 07:16:15;;;;;;;;;;;;;;;8.69;85.46;100685.41;4028071;29;20027;-70
2023/11/08 07:18:18;;;;;;;;;;;;;;;8.71;85.59;100682.53;4027186;29;20027;-70
2023/11/08 07:20:20;;;;;;;;;;;;;;;8.72;85.98;100679.69;4009661;29;20041;-71
2023/11/08 07:22:21;;;;;;;;;;;;;;;8.70;86.18;100689.78;4026262;29;20034;-71
2023/11/08 07:24:23;;;;;;;;;;;;;;;8.73;85.94;100686.75;4041534;29;20001;-70
2023/11/08 07:26:25;;;;;;;;;;;;;;;8.75;86.14;100687.41;4027942;29;20023;-71
2023/11/08 07:28:27;;;;;;;;;;;;;;;8.81;85.74;100694.00;4027146;29;20031;-71
2023/11/08 07:30:29;;;;;;;;;;;;;;;8.79;86.23;100696.00;4026327;29;20028;-70
2023/11/08 07:32:31;;;;;;;;;;;;;;;8.79;86.24;100696.88;4025469;29;20913;-71
2023/11/08 07:34:35;;;;;;;;;;;;;;;8.80;86.41;100697.69;4026427;29;20536;-71
2023/11/08 07:36:39;;;;;;;;;;;;;;;8.78;86.56;100703.25;4027272;29;20027;-71
2023/11/08 07:38:40;;;;;;;;;;;;;;;8.78;86.86;100700.56;4027084;29;20530;-70
2023/11/08 07:40:43;;;;;;;;;;;;;;;8.84;86.51;100699.88;4026523;29;20011;-71
2023/11/08 07:42:46;;;;;;;;;;;;;;;8.81;86.77;100705.59;4040592;29;20082;-70
2023/11/08 07:44:48;;;;;;;;;;;;;;;8.81;86.56;100696.69;4026987;29;20026;-71
2023/11/08 07:46:50;;;;;;;;;;;;;;;8.81;86.83;100707.47;4026580;29;20026;-71
2023/11/08 07:48:55;;;;;;;;;;;;;;;8.83;86.84;100705.44;4027514;29;20022;-71
2023/11/08 07:51:00;;;;;;;;;;;;;;;8.84;86.67;100709.84;4026847;29;20376;-72
2023/11/08 07:53:02;;;;;;;;;;;;;;;8.83;86.66;100698.19;4026856;29;20474;-71
2023/11/08 07:55:06;;;;;;;;;;;;;;;8.82;87.23;100710.00;4027173;29;19932;-71
2023/11/08 07:57:11;;;;;;;;;;;;;;;8.90;86.42;100709.13;4026268;29;20038;-70
2023/11/08 07:59:13;;;;;;;;;;;;;;;8.92;86.07;100714.34;4026648;29;20059;-70
2023/11/08 08:01:15;;;;;;;;;;;;;;;8.93;85.83;100713.34;4026676;29;20020;-71
2023/11/08 08:03:17;;;;;;;;;;;;;;;8.94;85.77;100713.19;4026879;29;20020;-71
2023/11/08 08:05:18;;;;;;;;;;;;;;;8.99;85.58;100718.09;4009429;29;20471;-71
2023/11/08 08:07:21;;;;;;;;;;;;;;;9.00;85.17;100726.00;4026824;29;20026;-71
2023/11/08 08:09:24;;;;;;;;;;;;;;;9.02;84.97;100726.66;4026415;29;20461;-71
2023/11/08 08:11:26;;;;;;;;;;;;;;;9.03;84.89;100719.44;4026675;29;20022;-69
2023/11/08 08:13:27;;;;;;;;;;;;;;;9.03;85.47;100719.44;4026183;29;20006;-69
2023/11/08 08:15:29;;;;;;;;;;;;;;;9.03;85.55;100716.75;4026461;29;19980;-71
2023/11/08 08:17:32;;;;;;;;;;;;;;;9.04;85.33;100718.41;4027275;29;20035;-70
2023/11/08 08:19:36;;;;;;;;;;;;;;;9.03;85.70;100716.75;4027050;29;20130;-71
2023/11/08 08:21:38;;;;;;;;;;;;;;;9.04;85.89;100720.28;4025935;29;20030;-70
2023/11/08 08:23:41;;;;;;;;;;;;;;;9.07;85.48;100706.47;4026204;29;20015;-71
2023/11/08 08:25:44;;;;;;;;;;;;;;;9.07;85.36;100717.25;4026692;29;20169;-70
2023/11/08 08:27:45;;;;;;;;;;;;;;;9.06;85.52;100715.56;4040625;29;20034;-70
2023/11/08 08:29:47;;;;;;;;;;;;;;;9.07;85.94;100714.56;4025802;29;20328;-71
2023/11/08 08:31:50;;;;;;;;;;;;;;;9.09;85.18;100717.91;4026608;29;20450;-71
2023/11/08 08:33:51;;;;;;;;;;;;;;;9.10;85.43;100722.28;4026972;29;20011;-71
2023/11/08 08:35:53;;;;;;;;;;;;;;;9.11;85.05;100732.06;4026026;29;19928;-70
2023/11/08 08:37:55;;;;;;;;;;;;;;;9.12;85.09;100731.03;4026425;29;20023;-71
2023/11/08 08:39:59;;;;;;;;;;;;;;;9.14;84.86;100729.06;4025955;29;20474;-71
2023/11/08 08:42:01;;;;;;;;;;;;;;;9.17;84.49;100723.31;4026691;29;20734;-70
2023/11/08 08:44:03;;;;;;;;;;;;;;;9.13;84.56;100712.03;4025984;29;20463;-69
2023/11/08 08:46:05;;;;;;;;;;;;;;;9.21;83.95;100730.03;4026191;29;20715;-69
2023/11/08 08:48:07;;;;;;;;;;;;;;;9.22;83.88;100729.03;4026731;29;20050;-70
2023/11/08 08:50:11;;;;;;;;;;;;;;;9.25;83.52;100736.78;4026097;29;20028;-71
2023/11/08 08:52:13;;;;;;;;;;;;;;;9.25;83.80;100739.50;4026399;29;20026;-71
2023/11/08 08:54:16;;;;;;;;;;;;;;;9.27;83.38;100740.16;4026381;29;20463;-71
2023/11/08 08:56:19;;;;;;;;;;;;;;;9.28;83.06;100733.75;4026524;29;19928;-69
2023/11/08 08:58:21;;;;;;;;;;;;;;;9.30;83.10;100731.72;4026184;29;20016;-71
2023/11/08 09:00:23;;;;;;;;;;;;;;;9.29;82.69;100743.50;4026151;29;20022;-70
2023/11/08 09:02:25;;;;;;;;;;;;;;;9.31;82.68;100736.13;4025747;29;20024;-71
2023/11/08 09:04:27;;;;;;;;;;;;;;;9.35;82.55;100742.00;4024119;29;20451;-71
2023/11/08 09:06:30;;;;;;;;;;;;;;;9.35;82.44;100731.22;4026466;29;20019;-70
2023/11/08 09:08:32;;;;;;;;;;;;;;;9.38;81.81;100738.97;4026430;29;20387;-70
2023/11/08 09:10:36;;;;;;;;;;;;;;;9.42;81.88;100742.16;4026146;29;20019;-70
2023/11/08 09:12:38;;;;;;;;;;;;;;;9.43;81.42;100742.00;4025792;29;20014;-71
2023/11/08 09:14:40;;;;;;;;;;;;;;;9.44;81.63;100741.00;4025770;29;20019;-70
2023/11/08 09:16:42;;;;;;;;;;;;;;;9.50;81.19;100752.97;4025275;29;20372;-70
2023/11/08 09:18:44;;;;;;;;;;;;;;;9.50;81.30;100739.47;4025861;29;20027;-71
2023/11/08 09:20:47;;;;;;;;;;;;;;;9.50;81.02;100742.19;4024438;29;20039;-70
2023/11/08 09:22:51;;;;;;;;;;;;;;;9.52;81.09;100742.84;4025636;29;20031;-70
2023/11/08 09:24:53;;;;;;;;;;;;;;;9.57;80.93;100764.72;4027579;29;20228;-69
2023/11/08 09:26:55;;;;;;;;;;;;;;;9.61;80.95;100766.09;4028756;29;20039;-69
2023/11/08 09:28:58;;;;;;;;;;;;;;;9.65;80.84;100751.25;4029237;29;20105;-71
2023/11/08 09:31:00;;;;;;;;;;;;;;;9.68;80.59;100748.19;4028244;29;20098;-67
2023/11/08 09:33:02;;;;;;;;;;;;;;;9.69;80.66;100746.38;4028213;29;20482;-71
2023/11/08 09:35:03;;;;;;;;;;;;;;;9.74;80.43;100749.38;4028692;29;20538;-70
2023/11/08 09:37:06;;;;;;;;;;;;;;;9.77;80.55;100748.22;4030283;29;19939;-70
2023/11/08 09:39:09;;;;;;;;;;;;;;;9.76;80.32;100758.13;4029472;29;19970;-70
2023/11/08 09:41:11;;;;;;;;;;;;;;;9.80;80.33;100764.88;4013262;29;19979;-70
2023/11/08 09:43:13;;;;;;;;;;;;;;;9.82;80.34;100752.06;4030754;29;19966;-70
2023/11/08 09:45:17;;;;;;;;;;;;;;;9.83;80.09;100766.41;4030505;29;20022;-70
2023/11/08 09:47:19;;;;;;;;;;;;;;;9.86;80.05;100761.50;4030588;29;20658;-70
2023/11/08 09:49:22;;;;;;;;;;;;;;;9.90;79.91;100759.28;4029140;29;20441;-70
2023/11/08 09:51:24;;;;;;;;;;;;;;;9.91;79.89;100767.22;4029991;29;20026;-70
2023/11/08 09:53:26;;;;;;;;;;;;;;;9.92;79.66;100768.91;4029195;29;20027;-70
2023/11/08 09:55:27;;;;;;;;;;;;;;;9.92;79.53;100758.13;4029243;29;20031;-70
2023/11/08 09:57:30;;;;;;;;;;;;;;;9.93;79.32;100761.66;4029885;29;19971;-70
2023/11/08 09:59:32;;;;;;;;;;;;;;;9.96;79.34;100764.00;4029452;29;20022;-70
2023/11/08 10:01:36;;;;;;;;;;;;;;;9.99;79.21;100770.91;4029341;29;20022;-70
2023/11/08 10:03:38;;;;;;;;;;;;;;;10.00;79.34;100761.78;4029533;29;20887;-70
2023/11/08 10:05:40;;;;;;;;;;;;;;;10.00;79.21;100759.09;4029551;29;20023;-70
2023/11/08 10:07:42;;;;;;;;;;;;;;;10.01;78.94;100766.19;4029447;29;20031;-70
2023/11/08 10:09:45;;;;;;;;;;;;;;;10.01;78.90;100767.00;4029713;29;20038;-70
2023/11/08 10:11:48;;;;;;;;;;;;;;;10.01;78.91;100750.81;4029073;29;20011;-70
2023/11/08 10:13:52;;;;;;;;;;;;;;;10.04;78.88;100765.84;4028958;29;20032;-70
2023/11/08 10:15:56;;;;;;;;;;;;;;;10.04;78.93;100772.06;4028764;29;20691;-70
2023/11/08 10:18:00;;;;;;;;;;;;;;;10.05;79.09;100749.47;4029192;29;19940;-70
2023/11/08 10:20:02;;;;;;;;;;;;;;;10.04;78.58;100753.19;4029524;29;19967;-70
2023/11/08 10:22:04;;;;;;;;;;;;;;;10.06;78.87;100751.16;4045248;29;19984;-70
2023/11/08 10:24:08;;;;;;;;;;;;;;;10.06;78.65;100753.88;4031406;29;20437;-70
2023/11/08 10:26:14;;;;;;;;;;;;;;;10.08;78.75;100748.28;4031363;29;20110;-70
2023/11/08 10:28:16;;;;;;;;;;;;;;;10.08;78.94;100743.72;4029868;29;20026;-70
2023/11/08 10:30:20;;;;;;;;;;;;;;;10.09;78.59;100749.97;4030163;29;20039;-70
2023/11/08 10:32:23;;;;;;;;;;;;;;;10.08;78.52;100743.72;4029879;29;20027;-70
2023/11/08 10:34:27;;;;;;;;;;;;;;;10.09;78.73;100744.56;4030176;29;19963;-70
2023/11/08 10:36:29;;;;;;;;;;;;;;;10.10;78.31;100748.94;4029684;29;20117;-70